Kythira I — D5JG3 — position and weather

sailwx.info

Track history (hours):
 
Tides and Currents Weather Stations Pressure Air Temp Water Temp Dewpoint Dewpoint Depression Visibility Wind Speed Wind Dir Waves Ship Positions

Kythira I

Last reported at 2018-May-27 05:46 UTC. Time now 2018-Jun-21 22:02 UTC.
Position N 01°24' E 104°38'.
Warning: this ship's position is 25 days out of date.

Length 229 m; draft 7.4 m.

Type: Ship. MMSI: 636017090.

Date/timePositionNaut miles runAvg speedWind from/ knotsBaromVisibWave heightAir tempDewpointWater temp
2018-May-27 05:46N 01°24' E 104°38'414.2
2018-May-27 05:30N 01°24' E 104°34'713.5
2018-May-27 04:57N 01°23' E 104°27'713.9
2018-May-27 04:29N 01°19' E 104°22'713.3
2018-May-27 03:58N 01°16' E 104°15'713.7
2018-May-27 03:29N 01°16' E 104°09'611.4
2018-May-27 02:59N 01°16' E 104°03'3 6.8
2018-May-27 02:30N 01°17' E 103°60'1 1.1
2018-May-27 01:59N 01°17' E 104°00'0 0.3
2018-May-27 01:26N 01°17' E 104°00'0 0.1
2018-May-27 00:59N 01°17' E 104°00'0 0.0
2018-May-27 00:30N 01°17' E 104°00'0 0.0
2018-May-26 23:59N 01°17' E 104°00'0 0.0
2018-May-26 23:24N 01°17' E 104°00'0 0.1
2018-May-26 22:41N 01°17' E 104°00'0 0.3
2018-May-26 22:29N 01°17' E 104°00'0 0.2
2018-May-26 21:57N 01°17' E 104°00'0 0.0
2018-May-26 21:30N 01°17' E 104°00'0 0.0
2018-May-26 21:00N 01°17' E 104°00'0 0.0
2018-May-26 20:29N 01°17' E 104°00'0 0.0
2018-May-26 19:59N 01°17' E 104°00'0 0.0
2018-May-26 19:30N 01°17' E 104°00'0 0.0
2018-May-26 18:45N 01°17' E 104°00'0 0.0
2018-May-26 18:29N 01°17' E 104°00'0 0.6
2018-May-26 18:00N 01°17' E 104°00'1 2.9
2018-May-26 17:30N 01°16' E 103°59'1 1.3
2018-May-26 17:00N 01°16' E 103°59'3 6.2
2018-May-26 16:30N 01°16' E 104°03'4 8.3
2018-May-26 16:00N 01°17' E 104°07'510.0
2018-May-26 15:30N 01°17' E 104°12'5 9.6
2018-May-26 14:59N 01°18' E 104°16'510.6
2018-May-26 14:29N 01°20' E 104°21'611.5
2018-May-26 13:59N 01°24' E 104°26'510.4
2018-May-26 13:28N 01°27' E 104°30'  
Track history (hours):
 
Tides and Currents Weather Stations Pressure Air Temp Water Temp Dewpoint Dewpoint Depression Visibility Wind Speed Wind Dir Waves Ship Positions

Kythira I

Last reported at 2018-May-27 05:46 UTC. Time now 2018-Jun-21 22:02 UTC.
Position N 01°24' E 104°38'.
Warning: this ship's position is 25 days out of date.

Length 229 m; draft 7.4 m.

Type: Ship. MMSI: 636017090.

Date/timePositionNaut miles runAvg speedWind from/ knotsBaromVisibWave heightAir tempDewpointWater temp
2018-May-27 05:46N 01°24' E 104°38'414.2
2018-May-27 05:30N 01°24' E 104°34'713.5
2018-May-27 04:57N 01°23' E 104°27'713.9
2018-May-27 04:29N 01°19' E 104°22'713.3
2018-May-27 03:58N 01°16' E 104°15'713.7
2018-May-27 03:29N 01°16' E 104°09'611.4
2018-May-27 02:59N 01°16' E 104°03'3 6.8
2018-May-27 02:30N 01°17' E 103°60'1 1.1
2018-May-27 01:59N 01°17' E 104°00'0 0.3
2018-May-27 01:26N 01°17' E 104°00'0 0.1
2018-May-27 00:59N 01°17' E 104°00'0 0.0
2018-May-27 00:30N 01°17' E 104°00'0 0.0
2018-May-26 23:59N 01°17' E 104°00'0 0.0
2018-May-26 23:24N 01°17' E 104°00'0 0.1
2018-May-26 22:41N 01°17' E 104°00'0 0.3
2018-May-26 22:29N 01°17' E 104°00'0 0.2
2018-May-26 21:57N 01°17' E 104°00'0 0.0
2018-May-26 21:30N 01°17' E 104°00'0 0.0
2018-May-26 21:00N 01°17' E 104°00'0 0.0
2018-May-26 20:29N 01°17' E 104°00'0 0.0
2018-May-26 19:59N 01°17' E 104°00'0 0.0
2018-May-26 19:30N 01°17' E 104°00'0 0.0
2018-May-26 18:45N 01°17' E 104°00'0 0.0
2018-May-26 18:29N 01°17' E 104°00'0 0.6
2018-May-26 18:00N 01°17' E 104°00'1 2.9
2018-May-26 17:30N 01°16' E 103°59'1 1.3
2018-May-26 17:00N 01°16' E 103°59'3 6.2
2018-May-26 16:30N 01°16' E 104°03'4 8.3
2018-May-26 16:00N 01°17' E 104°07'510.0
2018-May-26 15:30N 01°17' E 104°12'5 9.6
2018-May-26 14:59N 01°18' E 104°16'510.6
2018-May-26 14:29N 01°20' E 104°21'611.5
2018-May-26 13:59N 01°24' E 104°26'510.4
2018-May-26 13:28N 01°27' E 104°30'  

Dump ship's entire track history